sensor_id;sensor_type;location;lat;lon;timestamp;pressure;altitude;pressure_sealevel;temperature;humidity
75745;BME280;64359;51.366;-0.222;2023-07-09T00:00:36;101433.33;;;24.86;56.72
75745;BME280;64359;51.366;-0.222;2023-07-09T00:01:40;101430.99;;;24.85;56.57
75745;BME280;64359;51.366;-0.222;2023-07-09T00:02:45;101431.77;;;24.86;56.81
75745;BME280;64359;51.366;-0.222;2023-07-09T00:03:49;101433.73;;;24.86;56.68
75745;BME280;64359;51.366;-0.222;2023-07-09T00:04:54;101434.83;;;24.86;56.84
75745;BME280;64359;51.366;-0.222;2023-07-09T00:05:59;101436.52;;;24.86;56.70
75745;BME280;64359;51.366;-0.222;2023-07-09T00:07:04;101441.03;;;24.86;56.64
75745;BME280;64359;51.366;-0.222;2023-07-09T00:08:20;101442.95;;;24.85;56.77
75745;BME280;64359;51.366;-0.222;2023-07-09T00:09:26;101447.55;;;24.84;56.78
75745;BME280;64359;51.366;-0.222;2023-07-09T00:10:30;101448.33;;;24.84;56.58
75745;BME280;64359;51.366;-0.222;2023-07-09T00:11:34;101448.71;;;24.84;56.59
75745;BME280;64359;51.366;-0.222;2023-07-09T00:12:39;101444.38;;;24.81;56.53
75745;BME280;64359;51.366;-0.222;2023-07-09T00:13:43;101443.94;;;24.84;56.85
75745;BME280;64359;51.366;-0.222;2023-07-09T00:14:47;101439.04;;;24.84;56.74
75745;BME280;64359;51.366;-0.222;2023-07-09T00:15:52;101438.52;;;24.84;56.78
75745;BME280;64359;51.366;-0.222;2023-07-09T00:16:56;101438.35;;;24.84;56.75
75745;BME280;64359;51.366;-0.222;2023-07-09T00:18:01;101441.66;;;24.83;56.82
75745;BME280;64359;51.366;-0.222;2023-07-09T00:19:07;101442.92;;;24.84;56.54
75745;BME280;64359;51.366;-0.222;2023-07-09T00:20:17;101446.81;;;24.83;56.55
75745;BME280;64359;51.366;-0.222;2023-07-09T00:21:22;101450.67;;;24.83;56.73
75745;BME280;64359;51.366;-0.222;2023-07-09T00:22:27;101449.27;;;24.82;56.64
75745;BME280;64359;51.366;-0.222;2023-07-09T00:23:31;101452.89;;;24.82;56.61
75745;BME280;64359;51.366;-0.222;2023-07-09T00:24:36;101454.23;;;24.82;56.38
75745;BME280;64359;51.366;-0.222;2023-07-09T00:25:40;101453.30;;;24.82;56.40
75745;BME280;64359;51.366;-0.222;2023-07-09T00:26:47;101451.71;;;24.82;56.40
75745;BME280;64359;51.366;-0.222;2023-07-09T00:27:51;101454.27;;;24.82;56.31
75745;BME280;64359;51.366;-0.222;2023-07-09T00:28:56;101448.10;;;24.81;56.24
75745;BME280;64359;51.366;-0.222;2023-07-09T00:30:00;101447.89;;;24.82;56.36
75745;BME280;64359;51.366;-0.222;2023-07-09T00:31:06;101449.86;;;24.82;56.19
75745;BME280;64359;51.366;-0.222;2023-07-09T00:32:16;101451.25;;;24.81;56.25
75745;BME280;64359;51.366;-0.222;2023-07-09T00:33:23;101449.48;;;24.81;56.22
75745;BME280;64359;51.366;-0.222;2023-07-09T00:34:34;101450.36;;;24.81;56.34
75745;BME280;64359;51.366;-0.222;2023-07-09T00:35:38;101445.55;;;24.77;56.32
75745;BME280;64359;51.366;-0.222;2023-07-09T00:36:43;101453.13;;;24.80;56.25
75745;BME280;64359;51.366;-0.222;2023-07-09T00:37:48;101451.27;;;24.78;56.13
75745;BME280;64359;51.366;-0.222;2023-07-09T00:38:52;101456.36;;;24.81;56.21
75745;BME280;64359;51.366;-0.222;2023-07-09T00:39:56;101457.53;;;24.80;56.33
75745;BME280;64359;51.366;-0.222;2023-07-09T00:41:05;101450.30;;;24.77;56.29
75745;BME280;64359;51.366;-0.222;2023-07-09T00:42:14;101453.17;;;24.80;56.26
75745;BME280;64359;51.366;-0.222;2023-07-09T00:43:20;101454.63;;;24.80;56.26
75745;BME280;64359;51.366;-0.222;2023-07-09T00:44:28;101453.66;;;24.79;56.33
75745;BME280;64359;51.366;-0.222;2023-07-09T00:45:33;101452.73;;;24.79;56.24
75745;BME280;64359;51.366;-0.222;2023-07-09T00:48:20;101447.48;;;24.76;56.22
75745;BME280;64359;51.366;-0.222;2023-07-09T00:49:31;101452.19;;;24.76;56.20
75745;BME280;64359;51.366;-0.222;2023-07-09T00:50:38;101451.27;;;24.76;56.37
75745;BME280;64359;51.366;-0.222;2023-07-09T00:51:46;101454.10;;;24.76;56.28
75745;BME280;64359;51.366;-0.222;2023-07-09T00:52:54;101457.71;;;24.76;56.30
75745;BME280;64359;51.366;-0.222;2023-07-09T00:54:03;101465.21;;;24.75;56.48
75745;BME280;64359;51.366;-0.222;2023-07-09T00:55:13;101468.32;;;24.75;56.56
75745;BME280;64359;51.366;-0.222;2023-07-09T00:56:26;101466.89;;;24.75;56.71
75745;BME280;64359;51.366;-0.222;2023-07-09T00:57:32;101466.59;;;24.75;56.48
75745;BME280;64359;51.366;-0.222;2023-07-09T00:58:37;101466.84;;;24.74;56.43
75745;BME280;64359;51.366;-0.222;2023-07-09T00:59:42;101467.21;;;24.74;56.38
75745;BME280;64359;51.366;-0.222;2023-07-09T01:00:53;101464.17;;;24.71;56.13
75745;BME280;64359;51.366;-0.222;2023-07-09T01:01:58;101469.64;;;24.74;56.20
75745;BME280;64359;51.366;-0.222;2023-07-09T01:03:05;101471.36;;;24.73;56.13
75745;BME280;64359;51.366;-0.222;2023-07-09T01:04:11;101474.84;;;24.74;56.21
75745;BME280;64359;51.366;-0.222;2023-07-09T01:05:16;101474.11;;;24.71;56.25
75745;BME280;64359;51.366;-0.222;2023-07-09T01:06:29;101476.85;;;24.74;56.33
75745;BME280;64359;51.366;-0.222;2023-07-09T01:07:35;101475.09;;;24.74;56.44
75745;BME280;64359;51.366;-0.222;2023-07-09T01:08:41;101475.47;;;24.73;56.62
75745;BME280;64359;51.366;-0.222;2023-07-09T01:09:45;101477.17;;;24.73;56.44
75745;BME280;64359;51.366;-0.222;2023-07-09T01:10:50;101478.66;;;24.73;56.49
75745;BME280;64359;51.366;-0.222;2023-07-09T01:11:54;101481.04;;;24.73;56.41
75745;BME280;64359;51.366;-0.222;2023-07-09T01:13:03;101477.35;;;24.73;56.48
75745;BME280;64359;51.366;-0.222;2023-07-09T01:14:11;101474.84;;;24.73;56.74
75745;BME280;64359;51.366;-0.222;2023-07-09T01:15:17;101471.98;;;24.72;56.67
75745;BME280;64359;51.366;-0.222;2023-07-09T01:16:24;101469.09;;;24.72;56.67
75745;BME280;64359;51.366;-0.222;2023-07-09T01:17:29;101464.30;;;24.71;56.69
75745;BME280;64359;51.366;-0.222;2023-07-09T01:18:34;101470.05;;;24.72;56.75
75745;BME280;64359;51.366;-0.222;2023-07-09T01:19:42;101464.66;;;24.69;56.76
75745;BME280;64359;51.366;-0.222;2023-07-09T01:20:47;101475.58;;;24.71;56.69
75745;BME280;64359;51.366;-0.222;2023-07-09T01:21:52;101474.86;;;24.71;56.54
75745;BME280;64359;51.366;-0.222;2023-07-09T01:22:57;101475.99;;;24.71;56.34
75745;BME280;64359;51.366;-0.222;2023-07-09T01:24:45;101476.38;;;24.71;56.32
75745;BME280;64359;51.366;-0.222;2023-07-09T01:25:43;101476.11;;;24.70;56.41
75745;BME280;64359;51.366;-0.222;2023-07-09T01:26:49;101477.07;;;24.70;56.30
75745;BME280;64359;51.366;-0.222;2023-07-09T01:27:53;101478.92;;;24.69;56.14
75745;BME280;64359;51.366;-0.222;2023-07-09T01:28:58;101478.92;;;24.69;56.16
75745;BME280;64359;51.366;-0.222;2023-07-09T01:30:06;101481.23;;;24.70;56.20
75745;BME280;64359;51.366;-0.222;2023-07-09T01:31:11;101481.52;;;24.69;56.05
75745;BME280;64359;51.366;-0.222;2023-07-09T01:32:17;101482.14;;;24.69;56.25
75745;BME280;64359;51.366;-0.222;2023-07-09T01:33:23;101485.46;;;24.69;56.23
75745;BME280;64359;51.366;-0.222;2023-07-09T01:34:27;101477.23;;;24.70;56.12
75745;BME280;64359;51.366;-0.222;2023-07-09T01:35:35;101472.39;;;24.66;56.17
75745;BME280;64359;51.366;-0.222;2023-07-09T01:36:40;101473.82;;;24.67;56.05
75745;BME280;64359;51.366;-0.222;2023-07-09T01:37:44;101481.64;;;24.69;56.16
75745;BME280;64359;51.366;-0.222;2023-07-09T01:38:49;101483.08;;;24.69;56.14
75745;BME280;64359;51.366;-0.222;2023-07-09T01:39:54;101486.71;;;24.69;56.18
75745;BME280;64359;51.366;-0.222;2023-07-09T01:40:59;101481.02;;;24.70;56.20
75745;BME280;64359;51.366;-0.222;2023-07-09T01:42:04;101476.91;;;24.69;56.24
75745;BME280;64359;51.366;-0.222;2023-07-09T01:43:11;101480.98;;;24.70;56.26
75745;BME280;64359;51.366;-0.222;2023-07-09T01:44:15;101485.25;;;24.69;56.39
75745;BME280;64359;51.366;-0.222;2023-07-09T01:45:20;101484.74;;;24.69;56.28
75745;BME280;64359;51.366;-0.222;2023-07-09T01:46:25;101488.77;;;24.69;56.26
75745;BME280;64359;51.366;-0.222;2023-07-09T01:47:29;101489.65;;;24.69;56.40
75745;BME280;64359;51.366;-0.222;2023-07-09T01:48:33;101494.77;;;24.69;56.27
75745;BME280;64359;51.366;-0.222;2023-07-09T01:49:43;101499.50;;;24.69;56.25
75745;BME280;64359;51.366;-0.222;2023-07-09T01:50:49;101496.16;;;24.65;56.17
75745;BME280;64359;51.366;-0.222;2023-07-09T01:51:54;101495.96;;;24.68;56.17
75745;BME280;64359;51.366;-0.222;2023-07-09T01:52:58;101492.58;;;24.68;56.07
75745;BME280;64359;51.366;-0.222;2023-07-09T01:54:03;101498.48;;;24.68;56.09
75745;BME280;64359;51.366;-0.222;2023-07-09T01:55:10;101489.07;;;24.65;56.19
75745;BME280;64359;51.366;-0.222;2023-07-09T01:56:15;101488.94;;;24.65;56.19
75745;BME280;64359;51.366;-0.222;2023-07-09T01:57:21;101491.98;;;24.68;56.50
75745;BME280;64359;51.366;-0.222;2023-07-09T01:58:26;101492.28;;;24.67;56.61
75745;BME280;64359;51.366;-0.222;2023-07-09T01:59:33;101496.25;;;24.67;56.30
75745;BME280;64359;51.366;-0.222;2023-07-09T02:00:44;101489.17;;;24.63;56.10
75745;BME280;64359;51.366;-0.222;2023-07-09T02:01:48;101493.36;;;24.66;56.11
75745;BME280;64359;51.366;-0.222;2023-07-09T02:02:56;101494.53;;;24.67;56.12
75745;BME280;64359;51.366;-0.222;2023-07-09T02:04:01;101492.22;;;24.66;56.40
75745;BME280;64359;51.366;-0.222;2023-07-09T02:05:06;101493.60;;;24.66;56.46
75745;BME280;64359;51.366;-0.222;2023-07-09T02:06:11;101495.41;;;24.66;56.46
75745;BME280;64359;51.366;-0.222;2023-07-09T02:07:15;101493.77;;;24.65;56.38
75745;BME280;64359;51.366;-0.222;2023-07-09T02:08:20;101490.95;;;24.65;56.53
75745;BME280;64359;51.366;-0.222;2023-07-09T02:09:24;101496.36;;;24.65;56.49
75745;BME280;64359;51.366;-0.222;2023-07-09T02:10:29;101493.47;;;24.65;56.42
75745;BME280;64359;51.366;-0.222;2023-07-09T02:11:33;101494.27;;;24.65;56.55
75745;BME280;64359;51.366;-0.222;2023-07-09T02:12:38;101493.14;;;24.65;56.47
75745;BME280;64359;51.366;-0.222;2023-07-09T02:13:42;101493.89;;;24.65;56.57
75745;BME280;64359;51.366;-0.222;2023-07-09T02:14:47;101496.08;;;24.65;56.58
75745;BME280;64359;51.366;-0.222;2023-07-09T02:15:51;101500.51;;;24.64;56.44
75745;BME280;64359;51.366;-0.222;2023-07-09T02:16:55;101502.06;;;24.65;56.51
75745;BME280;64359;51.366;-0.222;2023-07-09T02:17:59;101504.32;;;24.64;56.43
75745;BME280;64359;51.366;-0.222;2023-07-09T02:19:04;101505.92;;;24.64;56.37
75745;BME280;64359;51.366;-0.222;2023-07-09T02:20:10;101501.77;;;24.64;56.36
75745;BME280;64359;51.366;-0.222;2023-07-09T02:21:15;101504.32;;;24.64;56.59
75745;BME280;64359;51.366;-0.222;2023-07-09T02:22:20;101506.75;;;24.64;56.51
75745;BME280;64359;51.366;-0.222;2023-07-09T02:23:27;101506.58;;;24.64;56.51
75745;BME280;64359;51.366;-0.222;2023-07-09T02:24:32;101509.34;;;24.63;56.31
75745;BME280;64359;51.366;-0.222;2023-07-09T02:25:36;101507.67;;;24.63;56.31
75745;BME280;64359;51.366;-0.222;2023-07-09T02:26:40;101508.09;;;24.63;56.48
75745;BME280;64359;51.366;-0.222;2023-07-09T02:27:45;101502.46;;;24.63;56.59
75745;BME280;64359;51.366;-0.222;2023-07-09T02:28:49;101500.70;;;24.63;56.46
75745;BME280;64359;51.366;-0.222;2023-07-09T02:29:53;101500.02;;;24.62;56.21
75745;BME280;64359;51.366;-0.222;2023-07-09T02:30:58;101501.80;;;24.63;56.49
75745;BME280;64359;51.366;-0.222;2023-07-09T02:32:03;101503.29;;;24.62;56.14
75745;BME280;64359;51.366;-0.222;2023-07-09T02:33:07;101503.67;;;24.62;56.26
75745;BME280;64359;51.366;-0.222;2023-07-09T02:34:12;101504.60;;;24.62;56.29
75745;BME280;64359;51.366;-0.222;2023-07-09T02:35:16;101506.91;;;24.62;56.30
75745;BME280;64359;51.366;-0.222;2023-07-09T02:36:20;101506.45;;;24.62;56.32
75745;BME280;64359;51.366;-0.222;2023-07-09T02:37:26;101506.57;;;24.62;56.30
75745;BME280;64359;51.366;-0.222;2023-07-09T02:38:30;101504.59;;;24.62;56.34
75745;BME280;64359;51.366;-0.222;2023-07-09T02:39:34;101500.52;;;24.61;56.30
75745;BME280;64359;51.366;-0.222;2023-07-09T02:40:39;101502.83;;;24.61;56.23
75745;BME280;64359;51.366;-0.222;2023-07-09T02:41:44;101505.05;;;24.61;56.47
75745;BME280;64359;51.366;-0.222;2023-07-09T02:42:48;101500.32;;;24.61;56.36
75745;BME280;64359;51.366;-0.222;2023-07-09T02:43:52;101502.36;;;24.61;56.37
75745;BME280;64359;51.366;-0.222;2023-07-09T02:44:57;101502.37;;;24.61;56.20
75745;BME280;64359;51.366;-0.222;2023-07-09T02:46:01;101506.81;;;24.60;56.06
75745;BME280;64359;51.366;-0.222;2023-07-09T02:47:06;101507.36;;;24.60;56.04
75745;BME280;64359;51.366;-0.222;2023-07-09T02:48:11;101506.14;;;24.60;55.99
75745;BME280;64359;51.366;-0.222;2023-07-09T02:49:16;101505.80;;;24.60;56.10
75745;BME280;64359;51.366;-0.222;2023-07-09T02:50:20;101507.60;;;24.59;56.18
75745;BME280;64359;51.366;-0.222;2023-07-09T02:51:24;101504.37;;;24.59;56.15
75745;BME280;64359;51.366;-0.222;2023-07-09T02:52:29;101503.63;;;24.59;56.11
75745;BME280;64359;51.366;-0.222;2023-07-09T02:53:34;101501.86;;;24.59;56.16
75745;BME280;64359;51.366;-0.222;2023-07-09T02:54:38;101493.61;;;24.55;56.12
75745;BME280;64359;51.366;-0.222;2023-07-09T02:55:42;101498.13;;;24.58;56.16
75745;BME280;64359;51.366;-0.222;2023-07-09T02:56:47;101496.77;;;24.58;56.15
75745;BME280;64359;51.366;-0.222;2023-07-09T02:57:51;101498.70;;;24.58;56.08
75745;BME280;64359;51.366;-0.222;2023-07-09T02:58:56;101499.30;;;24.58;56.07
75745;BME280;64359;51.366;-0.222;2023-07-09T03:00:00;101497.57;;;24.57;56.20
75745;BME280;64359;51.366;-0.222;2023-07-09T03:01:10;101495.80;;;24.57;56.16
75745;BME280;64359;51.366;-0.222;2023-07-09T03:02:15;101501.59;;;24.57;56.02
75745;BME280;64359;51.366;-0.222;2023-07-09T03:03:19;101498.18;;;24.55;56.08
75745;BME280;64359;51.366;-0.222;2023-07-09T03:04:24;101495.59;;;24.56;56.15
75745;BME280;64359;51.366;-0.222;2023-07-09T03:05:28;101499.81;;;24.55;56.01
75745;BME280;64359;51.366;-0.222;2023-07-09T03:06:33;101499.98;;;24.55;56.08
75745;BME280;64359;51.366;-0.222;2023-07-09T03:07:37;101500.57;;;24.55;56.15
75745;BME280;64359;51.366;-0.222;2023-07-09T03:08:42;101503.37;;;24.55;55.99
75745;BME280;64359;51.366;-0.222;2023-07-09T03:09:46;101499.39;;;24.54;56.11
75745;BME280;64359;51.366;-0.222;2023-07-09T03:10:50;101491.80;;;24.54;56.09
75745;BME280;64359;51.366;-0.222;2023-07-09T03:11:55;101482.91;;;24.54;56.06
75745;BME280;64359;51.366;-0.222;2023-07-09T03:13:00;101482.24;;;24.53;56.19
75745;BME280;64359;51.366;-0.222;2023-07-09T03:14:04;101484.05;;;24.54;56.08
75745;BME280;64359;51.366;-0.222;2023-07-09T03:15:09;101483.36;;;24.53;56.20
75745;BME280;64359;51.366;-0.222;2023-07-09T03:16:14;101483.41;;;24.53;56.00
75745;BME280;64359;51.366;-0.222;2023-07-09T03:17:19;101478.71;;;24.53;56.18
75745;BME280;64359;51.366;-0.222;2023-07-09T03:18:23;101478.08;;;24.52;56.17
75745;BME280;64359;51.366;-0.222;2023-07-09T03:19:27;101479.55;;;24.52;56.11
75745;BME280;64359;51.366;-0.222;2023-07-09T03:20:32;101481.35;;;24.52;56.26
75745;BME280;64359;51.366;-0.222;2023-07-09T03:21:36;101478.45;;;24.52;56.13
75745;BME280;64359;51.366;-0.222;2023-07-09T03:22:41;101473.21;;;24.52;56.01
75745;BME280;64359;51.366;-0.222;2023-07-09T03:23:45;101471.08;;;24.52;56.21
75745;BME280;64359;51.366;-0.222;2023-07-09T03:24:49;101469.48;;;24.51;56.17
75745;BME280;64359;51.366;-0.222;2023-07-09T03:25:54;101471.48;;;24.51;56.19
75745;BME280;64359;51.366;-0.222;2023-07-09T03:26:58;101469.23;;;24.50;56.08
75745;BME280;64359;51.366;-0.222;2023-07-09T03:28:03;101479.16;;;24.50;56.16
75745;BME280;64359;51.366;-0.222;2023-07-09T03:29:07;101484.44;;;24.50;56.19
75745;BME280;64359;51.366;-0.222;2023-07-09T03:30:13;101485.35;;;24.50;56.18
75745;BME280;64359;51.366;-0.222;2023-07-09T03:31:17;101485.19;;;24.50;56.16
75745;BME280;64359;51.366;-0.222;2023-07-09T03:32:22;101482.71;;;24.49;56.18
75745;BME280;64359;51.366;-0.222;2023-07-09T03:33:26;101483.80;;;24.50;56.18
75745;BME280;64359;51.366;-0.222;2023-07-09T03:34:31;101486.91;;;24.49;56.34
75745;BME280;64359;51.366;-0.222;2023-07-09T03:35:35;101487.08;;;24.49;56.12
75745;BME280;64359;51.366;-0.222;2023-07-09T03:36:41;101484.38;;;24.49;56.25
75745;BME280;64359;51.366;-0.222;2023-07-09T03:37:46;101491.27;;;24.49;56.47
75745;BME280;64359;51.366;-0.222;2023-07-09T03:38:50;101496.58;;;24.49;56.24
75745;BME280;64359;51.366;-0.222;2023-07-09T03:39:54;101500.44;;;24.49;56.26
75745;BME280;64359;51.366;-0.222;2023-07-09T03:40:59;101495.48;;;24.49;56.39
75745;BME280;64359;51.366;-0.222;2023-07-09T03:42:03;101493.60;;;24.48;56.13
75745;BME280;64359;51.366;-0.222;2023-07-09T03:43:09;101494.80;;;24.47;56.25
75745;BME280;64359;51.366;-0.222;2023-07-09T03:44:14;101503.53;;;24.49;56.22
75745;BME280;64359;51.366;-0.222;2023-07-09T03:45:18;101501.43;;;24.48;56.28
75745;BME280;64359;51.366;-0.222;2023-07-09T03:46:22;101506.30;;;24.48;56.18
75745;BME280;64359;51.366;-0.222;2023-07-09T03:47:27;101504.75;;;24.45;56.15
75745;BME280;64359;51.366;-0.222;2023-07-09T03:48:31;101514.55;;;24.47;56.13
75745;BME280;64359;51.366;-0.222;2023-07-09T03:49:36;101513.80;;;24.48;56.13
75745;BME280;64359;51.366;-0.222;2023-07-09T03:50:40;101518.86;;;24.48;56.24
75745;BME280;64359;51.366;-0.222;2023-07-09T03:51:45;101521.67;;;24.47;56.21
75745;BME280;64359;51.366;-0.222;2023-07-09T03:52:49;101524.73;;;24.47;56.23
75745;BME280;64359;51.366;-0.222;2023-07-09T03:53:53;101520.62;;;24.47;56.19
75745;BME280;64359;51.366;-0.222;2023-07-09T03:54:58;101518.95;;;24.47;56.07
75745;BME280;64359;51.366;-0.222;2023-07-09T03:56:04;101520.58;;;24.47;56.18
75745;BME280;64359;51.366;-0.222;2023-07-09T03:57:09;101524.81;;;24.47;56.26
75745;BME280;64359;51.366;-0.222;2023-07-09T03:58:14;101527.73;;;24.47;56.23
75745;BME280;64359;51.366;-0.222;2023-07-09T03:59:18;101525.09;;;24.46;56.09
75745;BME280;64359;51.366;-0.222;2023-07-09T04:00:23;101518.44;;;24.47;56.05
75745;BME280;64359;51.366;-0.222;2023-07-09T04:01:27;101505.65;;;24.46;56.11
75745;BME280;64359;51.366;-0.222;2023-07-09T04:02:32;101502.77;;;24.46;56.21
75745;BME280;64359;51.366;-0.222;2023-07-09T04:03:36;101510.17;;;24.46;56.18
75745;BME280;64359;51.366;-0.222;2023-07-09T04:04:40;101512.10;;;24.45;56.18
75745;BME280;64359;51.366;-0.222;2023-07-09T04:05:44;101507.44;;;24.45;56.18
75745;BME280;64359;51.366;-0.222;2023-07-09T04:06:49;101501.92;;;24.45;56.15
75745;BME280;64359;51.366;-0.222;2023-07-09T04:07:53;101499.27;;;24.45;56.12
75745;BME280;64359;51.366;-0.222;2023-07-09T04:08:58;101502.09;;;24.46;56.26
75745;BME280;64359;51.366;-0.222;2023-07-09T04:10:02;101511.26;;;24.45;56.42
75745;BME280;64359;51.366;-0.222;2023-07-09T04:11:07;101516.40;;;24.44;56.41
75745;BME280;64359;51.366;-0.222;2023-07-09T04:12:11;101521.77;;;24.45;56.24
75745;BME280;64359;51.366;-0.222;2023-07-09T04:13:16;101519.55;;;24.44;56.38
75745;BME280;64359;51.366;-0.222;2023-07-09T04:14:20;101517.36;;;24.44;56.24
75745;BME280;64359;51.366;-0.222;2023-07-09T04:15:24;101517.91;;;24.44;56.48
75745;BME280;64359;51.366;-0.222;2023-07-09T04:16:28;101510.20;;;24.43;56.39
75745;BME280;64359;51.366;-0.222;2023-07-09T04:17:33;101508.05;;;24.43;56.31
75745;BME280;64359;51.366;-0.222;2023-07-09T04:18:39;101501.41;;;24.41;56.26
75745;BME280;64359;51.366;-0.222;2023-07-09T04:19:43;101504.95;;;24.43;56.10
75745;BME280;64359;51.366;-0.222;2023-07-09T04:20:50;101504.15;;;24.42;56.19
75745;BME280;64359;51.366;-0.222;2023-07-09T04:21:54;101508.46;;;24.43;56.28
75745;BME280;64359;51.366;-0.222;2023-07-09T04:22:59;101512.31;;;24.42;56.34
75745;BME280;64359;51.366;-0.222;2023-07-09T04:24:04;101518.32;;;24.42;56.18
75745;BME280;64359;51.366;-0.222;2023-07-09T04:25:10;101517.23;;;24.42;56.18
75745;BME280;64359;51.366;-0.222;2023-07-09T04:26:15;101511.69;;;24.42;56.21
75745;BME280;64359;51.366;-0.222;2023-07-09T04:27:20;101505.48;;;24.42;56.15
75745;BME280;64359;51.366;-0.222;2023-07-09T04:28:24;101499.36;;;24.41;56.11
75745;BME280;64359;51.366;-0.222;2023-07-09T04:29:28;101506.48;;;24.41;56.24
75745;BME280;64359;51.366;-0.222;2023-07-09T04:30:33;101514.36;;;24.41;56.21
75745;BME280;64359;51.366;-0.222;2023-07-09T04:31:37;101524.69;;;24.39;56.25
75745;BME280;64359;51.366;-0.222;2023-07-09T04:32:41;101536.65;;;24.41;56.26
75745;BME280;64359;51.366;-0.222;2023-07-09T04:33:47;101534.80;;;24.40;56.22
75745;BME280;64359;51.366;-0.222;2023-07-09T04:34:51;101538.36;;;24.40;56.12
75745;BME280;64359;51.366;-0.222;2023-07-09T04:35:57;101542.52;;;24.41;56.36
75745;BME280;64359;51.366;-0.222;2023-07-09T04:37:01;101545.70;;;24.40;56.24
75745;BME280;64359;51.366;-0.222;2023-07-09T04:38:05;101541.83;;;24.39;56.22
75745;BME280;64359;51.366;-0.222;2023-07-09T04:39:11;101544.14;;;24.39;56.22
75745;BME280;64359;51.366;-0.222;2023-07-09T04:40:17;101545.98;;;24.39;56.33
75745;BME280;64359;51.366;-0.222;2023-07-09T04:41:22;101548.20;;;24.39;56.27
75745;BME280;64359;51.366;-0.222;2023-07-09T04:42:26;101546.94;;;24.39;56.23
75745;BME280;64359;51.366;-0.222;2023-07-09T04:43:30;101552.92;;;24.39;56.34
75745;BME280;64359;51.366;-0.222;2023-07-09T04:44:35;101554.67;;;24.38;56.19
75745;BME280;64359;51.366;-0.222;2023-07-09T04:45:39;101553.14;;;24.38;56.34
75745;BME280;64359;51.366;-0.222;2023-07-09T04:46:44;101552.80;;;24.38;56.42
75745;BME280;64359;51.366;-0.222;2023-07-09T04:47:48;101548.64;;;24.35;56.19
75745;BME280;64359;51.366;-0.222;2023-07-09T04:48:52;101556.67;;;24.38;56.29
75745;BME280;64359;51.366;-0.222;2023-07-09T04:49:58;101556.17;;;24.37;56.32
75745;BME280;64359;51.366;-0.222;2023-07-09T04:51:03;101551.83;;;24.37;56.28
75745;BME280;64359;51.366;-0.222;2023-07-09T04:52:08;101544.39;;;24.37;56.22
75745;BME280;64359;51.366;-0.222;2023-07-09T04:53:14;101534.80;;;24.37;56.21
75745;BME280;64359;51.366;-0.222;2023-07-09T04:54:19;101535.01;;;24.37;56.21
75745;BME280;64359;51.366;-0.222;2023-07-09T04:55:25;101527.61;;;24.33;56.10
75745;BME280;64359;51.366;-0.222;2023-07-09T04:56:30;101532.64;;;24.37;56.20
75745;BME280;64359;51.366;-0.222;2023-07-09T04:57:34;101541.60;;;24.36;56.25
75745;BME280;64359;51.366;-0.222;2023-07-09T04:58:39;101540.34;;;24.36;56.26
75745;BME280;64359;51.366;-0.222;2023-07-09T04:59:43;101535.86;;;24.36;56.31
75745;BME280;64359;51.366;-0.222;2023-07-09T05:00:48;101530.38;;;24.36;56.20
75745;BME280;64359;51.366;-0.222;2023-07-09T05:01:53;101529.02;;;24.35;56.26
75745;BME280;64359;51.366;-0.222;2023-07-09T05:02:57;101530.45;;;24.35;56.11
75745;BME280;64359;51.366;-0.222;2023-07-09T05:04:02;101532.96;;;24.35;56.13
75745;BME280;64359;51.366;-0.222;2023-07-09T05:05:07;101533.98;;;24.33;56.32
75745;BME280;64359;51.366;-0.222;2023-07-09T05:06:11;101539.70;;;24.35;56.25
75745;BME280;64359;51.366;-0.222;2023-07-09T05:07:15;101538.36;;;24.34;56.29
75745;BME280;64359;51.366;-0.222;2023-07-09T05:08:20;101539.20;;;24.35;56.27
75745;BME280;64359;51.366;-0.222;2023-07-09T05:09:25;101540.16;;;24.35;56.23
75745;BME280;64359;51.366;-0.222;2023-07-09T05:10:29;101544.69;;;24.35;56.19
75745;BME280;64359;51.366;-0.222;2023-07-09T05:11:35;101547.28;;;24.34;56.18
75745;BME280;64359;51.366;-0.222;2023-07-09T05:12:50;101558.34;;;24.35;56.24
75745;BME280;64359;51.366;-0.222;2023-07-09T05:13:54;101562.02;;;24.34;56.37
75745;BME280;64359;51.366;-0.222;2023-07-09T05:14:59;101557.95;;;24.33;56.20
75745;BME280;64359;51.366;-0.222;2023-07-09T05:16:03;101554.14;;;24.33;56.23
75745;BME280;64359;51.366;-0.222;2023-07-09T05:17:08;101555.57;;;24.33;56.21
75745;BME280;64359;51.366;-0.222;2023-07-09T05:18:13;101556.86;;;24.33;56.23
75745;BME280;64359;51.366;-0.222;2023-07-09T05:19:18;101553.46;;;24.33;56.27
75745;BME280;64359;51.366;-0.222;2023-07-09T05:20:22;101553.50;;;24.33;56.22
75745;BME280;64359;51.366;-0.222;2023-07-09T05:21:27;101560.39;;;24.33;56.28
75745;BME280;64359;51.366;-0.222;2023-07-09T05:22:32;101566.20;;;24.33;56.25
75745;BME280;64359;51.366;-0.222;2023-07-09T05:23:36;101569.55;;;24.32;56.17
75745;BME280;64359;51.366;-0.222;2023-07-09T05:24:41;101573.57;;;24.32;56.21
75745;BME280;64359;51.366;-0.222;2023-07-09T05:25:45;101575.91;;;24.32;56.35
75745;BME280;64359;51.366;-0.222;2023-07-09T05:26:50;101577.05;;;24.32;56.24
75745;BME280;64359;51.366;-0.222;2023-07-09T05:27:54;101578.30;;;24.32;56.14
75745;BME280;64359;51.366;-0.222;2023-07-09T05:28:58;101576.66;;;24.32;56.06
75745;BME280;64359;51.366;-0.222;2023-07-09T05:30:03;101573.65;;;24.31;56.17
75745;BME280;64359;51.366;-0.222;2023-07-09T05:31:08;101576.37;;;24.31;56.22
75745;BME280;64359;51.366;-0.222;2023-07-09T05:32:12;101578.59;;;24.31;56.12
75745;BME280;64359;51.366;-0.222;2023-07-09T05:33:18;101576.58;;;24.31;56.13
75745;BME280;64359;51.366;-0.222;2023-07-09T05:34:22;101575.60;;;24.30;56.24
75745;BME280;64359;51.366;-0.222;2023-07-09T05:35:27;101575.86;;;24.31;56.09
75745;BME280;64359;51.366;-0.222;2023-07-09T05:36:31;101576.61;;;24.31;56.23
75745;BME280;64359;51.366;-0.222;2023-07-09T05:37:37;101576.48;;;24.30;56.05
75745;BME280;64359;51.366;-0.222;2023-07-09T05:38:41;101578.63;;;24.31;56.14